sensor_id;sensor_type;location;lat;lon;timestamp;pressure;altitude;pressure_sealevel;temperature;humidity
48424;BME280;34232;42.502;26.014;2024-03-02T14:01:55;99617.19;;;12.64;81.61
48424;BME280;34232;42.502;26.014;2024-03-02T14:04:20;99618.63;;;12.94;79.92
48424;BME280;34232;42.502;26.014;2024-03-02T14:06:46;99612.25;;;13.22;77.36
48424;BME280;34232;42.502;26.014;2024-03-02T14:09:11;99610.63;;;13.47;76.25
48424;BME280;34232;42.502;26.014;2024-03-02T14:11:37;99619.81;;;13.61;74.75
48424;BME280;34232;42.502;26.014;2024-03-02T14:16:18;99624.59;;;13.91;73.41
48424;BME280;34232;42.502;26.014;2024-03-02T14:18:43;99617.72;;;14.07;72.73
48424;BME280;34232;42.502;26.014;2024-03-02T14:21:09;99613.00;;;14.26;71.44
48424;BME280;34232;42.502;26.014;2024-03-02T14:23:34;99624.81;;;14.40;70.06
48424;BME280;34232;42.502;26.014;2024-03-02T14:26:00;99629.63;;;14.53;69.77
48424;BME280;34232;42.502;26.014;2024-03-02T14:28:25;99622.72;;;14.60;69.25
48424;BME280;34232;42.502;26.014;2024-03-02T14:30:51;99622.72;;;14.68;68.63
48424;BME280;34232;42.502;26.014;2024-03-02T14:33:16;99618.44;;;14.75;67.67
48424;BME280;34232;42.502;26.014;2024-03-02T14:35:42;99621.88;;;14.67;68.75
48424;BME280;34232;42.502;26.014;2024-03-02T14:38:07;99630.50;;;14.78;68.18
48424;BME280;34232;42.502;26.014;2024-03-02T14:40:33;99626.53;;;14.74;67.85
48424;BME280;34232;42.502;26.014;2024-03-02T14:42:58;99632.63;;;14.66;66.95
48424;BME280;34232;42.502;26.014;2024-03-02T14:45:24;99627.84;;;14.69;68.22
48424;BME280;34232;42.502;26.014;2024-03-02T14:47:49;99631.81;;;14.65;68.13
48424;BME280;34232;42.502;26.014;2024-03-02T14:50:15;99628.50;;;14.55;68.89
48424;BME280;34232;42.502;26.014;2024-03-02T14:52:41;99639.09;;;14.55;68.49
48424;BME280;34232;42.502;26.014;2024-03-02T14:55:07;99635.75;;;14.53;69.40
48424;BME280;34232;42.502;26.014;2024-03-02T14:57:33;99630.63;;;14.44;68.94
48424;BME280;34232;42.502;26.014;2024-03-02T14:59:58;99634.66;;;14.30;69.74
48424;BME280;34232;42.502;26.014;2024-03-02T15:02:24;99637.50;;;14.28;69.88
48424;BME280;34232;42.502;26.014;2024-03-02T15:04:49;99642.91;;;14.19;69.74
48424;BME280;34232;42.502;26.014;2024-03-02T15:07:16;99643.41;;;14.22;69.98
48424;BME280;34232;42.502;26.014;2024-03-02T15:09:41;99647.84;;;14.14;69.88
48424;BME280;34232;42.502;26.014;2024-03-02T15:12:07;99640.53;;;14.08;69.90
48424;BME280;34232;42.502;26.014;2024-03-02T15:14:37;99647.28;;;14.02;70.10
48424;BME280;34232;42.502;26.014;2024-03-02T15:17:04;99643.94;;;13.92;70.32
48424;BME280;34232;42.502;26.014;2024-03-02T15:19:29;99656.59;;;13.80;70.64
48424;BME280;34232;42.502;26.014;2024-03-02T15:21:55;99655.56;;;13.73;71.02
48424;BME280;34232;42.502;26.014;2024-03-02T15:24:20;99657.03;;;13.68;71.50
48424;BME280;34232;42.502;26.014;2024-03-02T15:26:46;99664.16;;;13.49;71.92
48424;BME280;34232;42.502;26.014;2024-03-02T15:29:11;99666.91;;;13.40;72.76
48424;BME280;34232;42.502;26.014;2024-03-02T15:31:36;99663.91;;;13.35;73.58
48424;BME280;34232;42.502;26.014;2024-03-02T15:34:02;99671.47;;;13.29;73.50
48424;BME280;34232;42.502;26.014;2024-03-02T15:36:27;99670.94;;;13.26;74.21
48424;BME280;34232;42.502;26.014;2024-03-02T15:38:53;99665.66;;;13.26;73.87
48424;BME280;34232;42.502;26.014;2024-03-02T15:41:18;99671.69;;;13.36;73.78
48424;BME280;34232;42.502;26.014;2024-03-02T15:43:44;99674.69;;;13.41;73.20
48424;BME280;34232;42.502;26.014;2024-03-02T15:46:09;99676.44;;;13.32;72.94
48424;BME280;34232;42.502;26.014;2024-03-02T15:48:35;99674.78;;;13.31;73.46
48424;BME280;34232;42.502;26.014;2024-03-02T15:51:01;99682.56;;;13.33;73.50
48424;BME280;34232;42.502;26.014;2024-03-02T15:53:29;99686.34;;;13.30;73.09
48424;BME280;34232;42.502;26.014;2024-03-02T15:55:54;99680.16;;;13.22;73.42
48424;BME280;34232;42.502;26.014;2024-03-02T15:58:20;99690.19;;;13.18;73.51
48424;BME280;34232;42.502;26.014;2024-03-02T16:00:46;99699.09;;;13.17;73.86
48424;BME280;34232;42.502;26.014;2024-03-02T16:03:11;99699.09;;;13.17;73.47
48424;BME280;34232;42.502;26.014;2024-03-02T16:05:36;99697.75;;;13.13;73.87
48424;BME280;34232;42.502;26.014;2024-03-02T16:08:02;99704.41;;;13.17;74.11
48424;BME280;34232;42.502;26.014;2024-03-02T16:10:28;99702.03;;;13.14;74.25
48424;BME280;34232;42.502;26.014;2024-03-02T16:12:54;99700.47;;;13.21;74.14
48424;BME280;34232;42.502;26.014;2024-03-02T16:15:20;99699.94;;;13.18;74.26
48424;BME280;34232;42.502;26.014;2024-03-02T16:17:46;99701.50;;;13.11;74.54
48424;BME280;34232;42.502;26.014;2024-03-02T16:20:11;99701.28;;;13.04;75.03
48424;BME280;34232;42.502;26.014;2024-03-02T16:22:37;99703.91;;;13.04;75.12
48424;BME280;34232;42.502;26.014;2024-03-02T16:25:03;99708.50;;;13.02;75.51
48424;BME280;34232;42.502;26.014;2024-03-02T16:27:30;99709.50;;;13.01;75.51
48424;BME280;34232;42.502;26.014;2024-03-02T16:29:55;99710.88;;;13.05;75.34
48424;BME280;34232;42.502;26.014;2024-03-02T16:32:23;99718.78;;;13.05;75.35
48424;BME280;34232;42.502;26.014;2024-03-02T16:34:48;99716.28;;;12.86;75.49
48424;BME280;34232;42.502;26.014;2024-03-02T16:37:13;99724.06;;;12.87;75.79
48424;BME280;34232;42.502;26.014;2024-03-02T16:39:39;99722.25;;;12.88;76.12
48424;BME280;34232;42.502;26.014;2024-03-02T16:42:04;99725.56;;;12.90;75.89
48424;BME280;34232;42.502;26.014;2024-03-02T16:44:30;99736.44;;;12.87;76.42
48424;BME280;34232;42.502;26.014;2024-03-02T16:46:55;99737.66;;;12.92;76.07
48424;BME280;34232;42.502;26.014;2024-03-02T16:49:21;99736.53;;;12.95;76.18
48424;BME280;34232;42.502;26.014;2024-03-02T16:51:46;99734.88;;;12.94;76.14
48424;BME280;34232;42.502;26.014;2024-03-02T16:54:12;99735.56;;;12.96;76.04
48424;BME280;34232;42.502;26.014;2024-03-02T16:56:41;99741.03;;;12.85;76.31
48424;BME280;34232;42.502;26.014;2024-03-02T16:59:07;99733.78;;;12.87;76.94
48424;BME280;34232;42.502;26.014;2024-03-02T17:01:33;99734.47;;;12.89;76.30
48424;BME280;34232;42.502;26.014;2024-03-02T17:03:59;99739.63;;;12.90;76.39
48424;BME280;34232;42.502;26.014;2024-03-02T17:06:24;99739.06;;;12.87;76.44
48424;BME280;34232;42.502;26.014;2024-03-02T17:08:50;99744.06;;;12.90;76.24
48424;BME280;34232;42.502;26.014;2024-03-02T17:11:15;99745.03;;;12.89;76.17
48424;BME280;34232;42.502;26.014;2024-03-02T17:13:40;99746.03;;;12.88;76.32
48424;BME280;34232;42.502;26.014;2024-03-02T17:16:06;99761.59;;;12.91;76.13
48424;BME280;34232;42.502;26.014;2024-03-02T17:18:32;99751.00;;;12.91;76.34
48424;BME280;34232;42.502;26.014;2024-03-02T17:20:57;99755.31;;;12.92;76.31
48424;BME280;34232;42.502;26.014;2024-03-02T17:23:23;99746.97;;;12.96;76.33
48424;BME280;34232;42.502;26.014;2024-03-02T17:25:48;99752.75;;;13.00;75.87
48424;BME280;34232;42.502;26.014;2024-03-02T17:28:24;99757.75;;;13.03;75.58
48424;BME280;34232;42.502;26.014;2024-03-02T17:30:53;99761.06;;;13.05;75.13
48424;BME280;34232;42.502;26.014;2024-03-02T17:33:19;99759.81;;;13.09;75.40
48424;BME280;34232;42.502;26.014;2024-03-02T17:35:45;99759.50;;;13.12;75.13
48424;BME280;34232;42.502;26.014;2024-03-02T17:38:13;99759.81;;;13.09;75.30
48424;BME280;34232;42.502;26.014;2024-03-02T17:40:38;99770.06;;;13.12;75.53
48424;BME280;34232;42.502;26.014;2024-03-02T17:43:04;99759.13;;;13.07;75.20
48424;BME280;34232;42.502;26.014;2024-03-02T17:45:29;99761.22;;;13.04;75.49
48424;BME280;34232;42.502;26.014;2024-03-02T17:47:55;99760.03;;;12.98;75.66
48424;BME280;34232;42.502;26.014;2024-03-02T17:50:20;99760.84;;;12.99;75.89
48424;BME280;34232;42.502;26.014;2024-03-02T17:52:46;99762.97;;;12.95;76.12
48424;BME280;34232;42.502;26.014;2024-03-02T17:55:13;99767.94;;;12.98;76.20
48424;BME280;34232;42.502;26.014;2024-03-02T17:57:38;99767.94;;;12.98;75.95
48424;BME280;34232;42.502;26.014;2024-03-02T18:00:04;99774.22;;;12.97;76.10
48424;BME280;34232;42.502;26.014;2024-03-02T18:02:30;99770.19;;;12.93;76.38
48424;BME280;34232;42.502;26.014;2024-03-02T18:04:59;99768.53;;;12.92;76.69
48424;BME280;34232;42.502;26.014;2024-03-02T18:07:24;99773.81;;;12.92;76.77
48424;BME280;34232;42.502;26.014;2024-03-02T18:09:50;99771.16;;;12.92;76.61
48424;BME280;34232;42.502;26.014;2024-03-02T18:12:15;99778.13;;;12.93;76.91
48424;BME280;34232;42.502;26.014;2024-03-02T18:14:40;99773.13;;;12.90;77.01
48424;BME280;34232;42.502;26.014;2024-03-02T18:17:06;99779.38;;;12.89;77.03
48424;BME280;34232;42.502;26.014;2024-03-02T18:19:31;99780.50;;;12.86;77.07
48424;BME280;34232;42.502;26.014;2024-03-02T18:21:57;99786.91;;;12.84;77.36
48424;BME280;34232;42.502;26.014;2024-03-02T18:24:22;99791.22;;;12.57;77.87
48424;BME280;34232;42.502;26.014;2024-03-02T18:26:51;99799.63;;;12.43;79.16
48424;BME280;34232;42.502;26.014;2024-03-02T18:29:17;99797.31;;;12.31;80.53
48424;BME280;34232;42.502;26.014;2024-03-02T18:31:42;99796.94;;;12.16;81.44
48424;BME280;34232;42.502;26.014;2024-03-02T18:34:09;99805.56;;;12.08;82.04
48424;BME280;34232;42.502;26.014;2024-03-02T18:36:34;99815.81;;;12.02;82.58
48424;BME280;34232;42.502;26.014;2024-03-02T18:39:00;99807.50;;;12.06;82.73
48424;BME280;34232;42.502;26.014;2024-03-02T18:41:25;99815.28;;;12.08;82.58
48424;BME280;34232;42.502;26.014;2024-03-02T18:43:51;99811.69;;;11.99;83.04
48424;BME280;34232;42.502;26.014;2024-03-02T18:46:16;99818.06;;;11.87;84.08
48424;BME280;34232;42.502;26.014;2024-03-02T18:48:43;99812.81;;;11.77;84.92
48424;BME280;34232;42.502;26.014;2024-03-02T18:51:09;99819.06;;;11.76;85.49
48424;BME280;34232;42.502;26.014;2024-03-02T18:53:35;99820.97;;;11.74;85.55
48424;BME280;34232;42.502;26.014;2024-03-02T18:56:01;99822.50;;;11.67;85.54
48424;BME280;34232;42.502;26.014;2024-03-02T18:58:29;99822.19;;;11.41;86.22
48424;BME280;34232;42.502;26.014;2024-03-02T19:00:55;99816.81;;;11.33;86.72
48424;BME280;34232;42.502;26.014;2024-03-02T19:03:20;99828.84;;;11.16;87.49
48424;BME280;34232;42.502;26.014;2024-03-02T19:05:46;99823.00;;;11.22;87.04
48424;BME280;34232;42.502;26.014;2024-03-02T19:08:11;99823.00;;;11.22;87.11
48424;BME280;34232;42.502;26.014;2024-03-02T19:10:42;99832.44;;;11.25;86.40
48424;BME280;34232;42.502;26.014;2024-03-02T19:13:08;99831.03;;;11.21;86.26
48424;BME280;34232;42.502;26.014;2024-03-02T19:15:33;99835.78;;;11.17;86.63
48424;BME280;34232;42.502;26.014;2024-03-02T19:17:59;99839.13;;;11.19;86.72
48424;BME280;34232;42.502;26.014;2024-03-02T19:20:24;99834.50;;;11.21;86.80
48424;BME280;34232;42.502;26.014;2024-03-02T19:22:49;99840.47;;;11.14;86.80
48424;BME280;34232;42.502;26.014;2024-03-02T19:25:15;99839.63;;;11.13;85.91
48424;BME280;34232;42.502;26.014;2024-03-02T19:27:41;99851.16;;;11.12;85.52
48424;BME280;34232;42.502;26.014;2024-03-02T19:30:07;99855.44;;;11.13;85.03
48424;BME280;34232;42.502;26.014;2024-03-02T19:32:33;99850.75;;;11.17;85.10
48424;BME280;34232;42.502;26.014;2024-03-02T19:34:59;99855.72;;;11.10;84.99
48424;BME280;34232;42.502;26.014;2024-03-02T19:37:25;99855.44;;;11.04;85.26
48424;BME280;34232;42.502;26.014;2024-03-02T19:39:51;99862.91;;;10.99;85.52
48424;BME280;34232;42.502;26.014;2024-03-02T19:42:16;99868.09;;;10.89;85.72
48424;BME280;34232;42.502;26.014;2024-03-02T19:44:42;99867.00;;;10.82;85.39
48424;BME280;34232;42.502;26.014;2024-03-02T19:47:08;99868.78;;;10.81;85.68
48424;BME280;34232;42.502;26.014;2024-03-02T19:49:36;99871.09;;;10.75;85.57
48424;BME280;34232;42.502;26.014;2024-03-02T19:52:02;99878.03;;;10.76;85.71
48424;BME280;34232;42.502;26.014;2024-03-02T19:54:28;99877.53;;;10.82;85.57
48424;BME280;34232;42.502;26.014;2024-03-02T19:56:54;99879.19;;;10.83;85.02
48424;BME280;34232;42.502;26.014;2024-03-02T19:59:21;99881.94;;;10.81;85.22
48424;BME280;34232;42.502;26.014;2024-03-02T20:01:46;99881.13;;;10.81;84.53
48424;BME280;34232;42.502;26.014;2024-03-02T20:04:12;99888.34;;;10.88;84.45
48424;BME280;34232;42.502;26.014;2024-03-02T20:06:37;99879.19;;;10.83;84.31
48424;BME280;34232;42.502;26.014;2024-03-02T20:09:06;99888.91;;;10.92;84.08
48424;BME280;34232;42.502;26.014;2024-03-02T20:11:32;99880.31;;;10.90;83.71
48424;BME280;34232;42.502;26.014;2024-03-02T20:13:59;99888.22;;;10.90;83.75
48424;BME280;34232;42.502;26.014;2024-03-02T20:16:25;99887.50;;;10.88;83.71
48424;BME280;34232;42.502;26.014;2024-03-02T20:18:50;99889.72;;;10.83;84.00
48424;BME280;34232;42.502;26.014;2024-03-02T20:21:16;99894.44;;;10.89;84.20
48424;BME280;34232;42.502;26.014;2024-03-02T20:23:41;99885.91;;;10.97;83.82
48424;BME280;34232;42.502;26.014;2024-03-02T20:26:07;99890.31;;;10.96;83.44
48424;BME280;34232;42.502;26.014;2024-03-02T20:28:33;99888.41;;;10.98;82.85
48424;BME280;34232;42.502;26.014;2024-03-02T20:30:59;99896.31;;;10.98;82.95
48424;BME280;34232;42.502;26.014;2024-03-02T20:33:25;99890.78;;;11.01;82.53
48424;BME280;34232;42.502;26.014;2024-03-02T20:35:50;99895.59;;;10.96;82.53
48424;BME280;34232;42.502;26.014;2024-03-02T20:38:16;99892.25;;;10.94;82.63
48424;BME280;34232;42.502;26.014;2024-03-02T20:40:41;99898.59;;;10.82;82.91
48424;BME280;34232;42.502;26.014;2024-03-02T20:43:10;99894.53;;;10.78;83.18
48424;BME280;34232;42.502;26.014;2024-03-02T20:45:36;99897.66;;;10.62;84.38
48424;BME280;34232;42.502;26.014;2024-03-02T20:48:02;99900.38;;;10.51;85.21
48424;BME280;34232;42.502;26.014;2024-03-02T20:50:28;99901.72;;;10.45;85.38
48424;BME280;34232;42.502;26.014;2024-03-02T20:52:53;99906.78;;;10.37;85.90
48424;BME280;34232;42.502;26.014;2024-03-02T20:55:21;99898.50;;;10.21;86.97
48424;BME280;34232;42.502;26.014;2024-03-02T20:57:48;99893.47;;;10.18;87.44
48424;BME280;34232;42.502;26.014;2024-03-02T21:00:13;99894.09;;;10.22;87.37
48424;BME280;34232;42.502;26.014;2024-03-02T21:02:39;99890.50;;;10.11;87.29
48424;BME280;34232;42.502;26.014;2024-03-02T21:05:05;99887.03;;;10.11;87.24
48424;BME280;34232;42.502;26.014;2024-03-02T21:07:31;99890.84;;;10.18;87.66
48424;BME280;34232;42.502;26.014;2024-03-02T21:10:00;99894.44;;;10.17;86.94
48424;BME280;34232;42.502;26.014;2024-03-02T21:12:25;99891.88;;;10.27;86.97
48424;BME280;34232;42.502;26.014;2024-03-02T21:14:52;99890.81;;;10.29;86.45
48424;BME280;34232;42.502;26.014;2024-03-02T21:17:17;99897.03;;;10.28;85.76
48424;BME280;34232;42.502;26.014;2024-03-02T21:19:43;99896.41;;;10.36;85.51
48424;BME280;34232;42.502;26.014;2024-03-02T21:22:08;99898.06;;;10.37;85.61
48424;BME280;34232;42.502;26.014;2024-03-02T21:24:33;99899.53;;;10.50;84.96
48424;BME280;34232;42.502;26.014;2024-03-02T21:27:01;99902.06;;;10.62;84.74
48424;BME280;34232;42.502;26.014;2024-03-02T21:29:26;99890.47;;;10.64;83.69
48424;BME280;34232;42.502;26.014;2024-03-02T21:31:52;99892.84;;;10.67;83.30
48424;BME280;34232;42.502;26.014;2024-03-02T21:34:20;99901.47;;;10.79;82.66
48424;BME280;34232;42.502;26.014;2024-03-02T21:36:45;99900.00;;;10.86;82.02
48424;BME280;34232;42.502;26.014;2024-03-02T21:39:11;99904.72;;;10.92;81.43
48424;BME280;34232;42.502;26.014;2024-03-02T21:41:36;99905.28;;;10.96;81.04
48424;BME280;34232;42.502;26.014;2024-03-02T21:44:02;99904.47;;;10.95;80.98
48424;BME280;34232;42.502;26.014;2024-03-02T21:46:28;99903.22;;;10.99;80.61
48424;BME280;34232;42.502;26.014;2024-03-02T21:48:53;99899.38;;;11.03;80.24
48424;BME280;34232;42.502;26.014;2024-03-02T21:51:18;99898.13;;;11.07;79.88
48424;BME280;34232;42.502;26.014;2024-03-02T21:53:44;99888.69;;;11.05;79.65
48424;BME280;34232;42.502;26.014;2024-03-02T21:56:14;99897.00;;;11.00;79.96
48424;BME280;34232;42.502;26.014;2024-03-02T21:58:41;99892.69;;;10.99;80.02
48424;BME280;34232;42.502;26.014;2024-03-02T22:01:06;99897.00;;;11.00;80.04
48424;BME280;34232;42.502;26.014;2024-03-02T22:03:32;99895.06;;;11.02;79.63
48424;BME280;34232;42.502;26.014;2024-03-02T22:05:57;99895.06;;;11.02;79.23
48424;BME280;34232;42.502;26.014;2024-03-02T22:08:23;99897.72;;;11.02;79.15
48424;BME280;34232;42.502;26.014;2024-03-02T22:10:48;99898.38;;;11.04;79.53
48424;BME280;34232;42.502;26.014;2024-03-02T22:13:14;99898.38;;;11.04;79.21
48424;BME280;34232;42.502;26.014;2024-03-02T22:15:39;99887.16;;;11.02;79.01
48424;BME280;34232;42.502;26.014;2024-03-02T22:18:05;99890.91;;;11.00;79.02
48424;BME280;34232;42.502;26.014;2024-03-02T22:20:30;99884.09;;;10.97;78.95
48424;BME280;34232;42.502;26.014;2024-03-02T22:22:55;99893.94;;;10.95;79.17
48424;BME280;34232;42.502;26.014;2024-03-02T22:25:21;99893.34;;;10.92;79.25
48424;BME280;34232;42.502;26.014;2024-03-02T22:27:46;99890.97;;;10.88;79.27
48424;BME280;34232;42.502;26.014;2024-03-02T22:30:19;99885.16;;;10.85;79.43
48424;BME280;34232;42.502;26.014;2024-03-02T22:32:45;99884.88;;;10.88;79.93
48424;BME280;34232;42.502;26.014;2024-03-02T22:35:10;99885.56;;;10.90;79.69
48424;BME280;34232;42.502;26.014;2024-03-02T22:37:36;99885.56;;;10.90;78.88
48424;BME280;34232;42.502;26.014;2024-03-02T22:40:01;99884.00;;;10.78;78.56
48424;BME280;34232;42.502;26.014;2024-03-02T22:42:26;99887.16;;;10.72;79.14
48424;BME280;34232;42.502;26.014;2024-03-02T22:44:52;99884.94;;;10.67;79.38
48424;BME280;34232;42.502;26.014;2024-03-02T22:47:18;99901.00;;;10.64;79.44
48424;BME280;34232;42.502;26.014;2024-03-02T22:49:43;99899.44;;;10.62;80.11
48424;BME280;34232;42.502;26.014;2024-03-02T22:52:09;99910.69;;;10.64;80.31
48424;BME280;34232;42.502;26.014;2024-03-02T22:54:34;99895.72;;;10.64;80.00
48424;BME280;34232;42.502;26.014;2024-03-02T22:56:59;99894.63;;;10.67;80.03
48424;BME280;34232;42.502;26.014;2024-03-02T22:59:26;99893.94;;;10.65;80.49
48424;BME280;34232;42.502;26.014;2024-03-02T23:01:51;99894.38;;;10.70;80.20
48424;BME280;34232;42.502;26.014;2024-03-02T23:04:16;99897.69;;;10.72;80.01
48424;BME280;34232;42.502;26.014;2024-03-02T23:06:42;99894.09;;;10.73;80.13
48424;BME280;34232;42.502;26.014;2024-03-02T23:09:07;99897.69;;;10.72;79.64
48424;BME280;34232;42.502;26.014;2024-03-02T23:11:33;99897.69;;;10.72;79.73
48424;BME280;34232;42.502;26.014;2024-03-02T23:13:59;99894.38;;;10.70;80.44
48424;BME280;34232;42.502;26.014;2024-03-02T23:16:24;99898.81;;;10.69;81.32
48424;BME280;34232;42.502;26.014;2024-03-02T23:18:52;99899.63;;;10.70;80.06
48424;BME280;34232;42.502;26.014;2024-03-02T23:21:17;99896.56;;;10.65;80.15
48424;BME280;34232;42.502;26.014;2024-03-02T23:23:43;99897.06;;;10.59;80.51
48424;BME280;34232;42.502;26.014;2024-03-02T23:26:08;99900.66;;;10.58;80.38
48424;BME280;34232;42.502;26.014;2024-03-02T23:28:33;99899.81;;;10.57;80.36
48424;BME280;34232;42.502;26.014;2024-03-02T23:30:59;99910.34;;;10.57;80.10
48424;BME280;34232;42.502;26.014;2024-03-02T23:33:24;99905.22;;;10.56;80.21
48424;BME280;34232;42.502;26.014;2024-03-02T23:35:50;99906.47;;;10.51;80.88
48424;BME280;34232;42.502;26.014;2024-03-02T23:38:15;99908.13;;;10.52;80.75
48424;BME280;34232;42.502;26.014;2024-03-02T23:40:40;99902.88;;;10.52;80.44
48424;BME280;34232;42.502;26.014;2024-03-02T23:43:22;99906.47;;;10.51;80.46
48424;BME280;34232;42.502;26.014;2024-03-02T23:45:48;99904.78;;;10.50;80.52
48424;BME280;34232;42.502;26.014;2024-03-02T23:48:13;99901.47;;;10.48;80.65
48424;BME280;34232;42.502;26.014;2024-03-02T23:50:39;99906.00;;;10.46;80.37
48424;BME280;34232;42.502;26.014;2024-03-02T23:53:04;99902.38;;;10.38;80.18
48424;BME280;34232;42.502;26.014;2024-03-02T23:55:29;99900.81;;;10.35;79.85
48424;BME280;34232;42.502;26.014;2024-03-02T23:57:55;99901.06;;;10.32;80.20
